sensor_id;sensor_type;location;lat;lon;timestamp;temperature;humidity
19522;DHT22;9905;52.126;5.596;2023-08-20T00:00:02;19.00;99.90
19522;DHT22;9905;52.126;5.596;2023-08-20T00:02:33;19.00;99.90
19522;DHT22;9905;52.126;5.596;2023-08-20T00:05:04;19.00;99.90
19522;DHT22;9905;52.126;5.596;2023-08-20T00:07:32;19.00;99.90
19522;DHT22;9905;52.126;5.596;2023-08-20T00:09:59;18.90;99.90
19522;DHT22;9905;52.126;5.596;2023-08-20T00:12:26;18.90;99.90
19522;DHT22;9905;52.126;5.596;2023-08-20T00:14:54;18.90;99.90
19522;DHT22;9905;52.126;5.596;2023-08-20T00:17:22;18.90;99.90
19522;DHT22;9905;52.126;5.596;2023-08-20T00:19:53;18.90;99.90
19522;DHT22;9905;52.126;5.596;2023-08-20T00:22:22;18.90;99.90
19522;DHT22;9905;52.126;5.596;2023-08-20T00:24:49;18.80;99.90
19522;DHT22;9905;52.126;5.596;2023-08-20T00:27:16;18.80;99.90
19522;DHT22;9905;52.126;5.596;2023-08-20T00:29:43;18.70;99.90
19522;DHT22;9905;52.126;5.596;2023-08-20T00:32:10;18.70;99.90
19522;DHT22;9905;52.126;5.596;2023-08-20T00:34:37;18.70;99.90
19522;DHT22;9905;52.126;5.596;2023-08-20T00:37:05;18.70;99.90
19522;DHT22;9905;52.126;5.596;2023-08-20T00:39:33;18.60;99.90
19522;DHT22;9905;52.126;5.596;2023-08-20T00:42:00;18.60;99.90
19522;DHT22;9905;52.126;5.596;2023-08-20T00:44:27;18.60;99.90
19522;DHT22;9905;52.126;5.596;2023-08-20T00:46:55;18.50;99.90
19522;DHT22;9905;52.126;5.596;2023-08-20T00:49:22;18.50;99.90
19522;DHT22;9905;52.126;5.596;2023-08-20T00:51:49;18.50;99.90
19522;DHT22;9905;52.126;5.596;2023-08-20T00:54:16;18.40;99.90
19522;DHT22;9905;52.126;5.596;2023-08-20T00:56:45;18.40;99.90
19522;DHT22;9905;52.126;5.596;2023-08-20T00:59:12;18.40;99.90
19522;DHT22;9905;52.126;5.596;2023-08-20T01:01:39;18.40;99.90
19522;DHT22;9905;52.126;5.596;2023-08-20T01:04:06;18.30;99.90
19522;DHT22;9905;52.126;5.596;2023-08-20T01:06:39;18.30;99.90
19522;DHT22;9905;52.126;5.596;2023-08-20T01:09:17;18.30;99.90
19522;DHT22;9905;52.126;5.596;2023-08-20T01:11:54;18.30;99.90
19522;DHT22;9905;52.126;5.596;2023-08-20T01:14:22;18.30;99.90
19522;DHT22;9905;52.126;5.596;2023-08-20T01:16:49;18.40;99.90
19522;DHT22;9905;52.126;5.596;2023-08-20T01:19:18;18.30;99.90
19522;DHT22;9905;52.126;5.596;2023-08-20T01:21:56;18.30;99.90
19522;DHT22;9905;52.126;5.596;2023-08-20T01:24:38;18.30;99.90
19522;DHT22;9905;52.126;5.596;2023-08-20T01:27:25;18.40;99.90
19522;DHT22;9905;52.126;5.596;2023-08-20T01:29:55;18.30;99.90
19522;DHT22;9905;52.126;5.596;2023-08-20T01:32:23;18.40;99.90
19522;DHT22;9905;52.126;5.596;2023-08-20T01:34:51;18.40;99.90
19522;DHT22;9905;52.126;5.596;2023-08-20T01:37:18;18.50;99.90
19522;DHT22;9905;52.126;5.596;2023-08-20T01:39:45;18.50;99.90
19522;DHT22;9905;52.126;5.596;2023-08-20T01:42:12;18.50;99.90
19522;DHT22;9905;52.126;5.596;2023-08-20T01:44:39;18.40;99.90
19522;DHT22;9905;52.126;5.596;2023-08-20T01:47:07;18.50;99.90
19522;DHT22;9905;52.126;5.596;2023-08-20T01:49:34;18.40;99.90
19522;DHT22;9905;52.126;5.596;2023-08-20T01:52:01;18.40;99.90
19522;DHT22;9905;52.126;5.596;2023-08-20T01:54:27;18.40;99.90
19522;DHT22;9905;52.126;5.596;2023-08-20T01:56:55;18.50;99.90
19522;DHT22;9905;52.126;5.596;2023-08-20T01:59:22;18.40;99.90
19522;DHT22;9905;52.126;5.596;2023-08-20T02:01:49;18.40;99.90
19522;DHT22;9905;52.126;5.596;2023-08-20T02:04:17;18.40;99.90
19522;DHT22;9905;52.126;5.596;2023-08-20T02:06:44;18.40;99.90
19522;DHT22;9905;52.126;5.596;2023-08-20T02:09:11;18.30;99.90
19522;DHT22;9905;52.126;5.596;2023-08-20T02:11:38;18.30;99.90
19522;DHT22;9905;52.126;5.596;2023-08-20T02:14:05;18.30;99.90
19522;DHT22;9905;52.126;5.596;2023-08-20T02:16:32;18.20;99.90
19522;DHT22;9905;52.126;5.596;2023-08-20T02:18:58;18.20;99.90
19522;DHT22;9905;52.126;5.596;2023-08-20T02:21:28;18.20;99.90
19522;DHT22;9905;52.126;5.596;2023-08-20T02:23:55;18.10;99.90
19522;DHT22;9905;52.126;5.596;2023-08-20T02:26:22;18.10;99.90
19522;DHT22;9905;52.126;5.596;2023-08-20T02:28:49;18.10;99.90
19522;DHT22;9905;52.126;5.596;2023-08-20T02:31:16;18.10;99.90
19522;DHT22;9905;52.126;5.596;2023-08-20T02:33:42;18.00;99.90
19522;DHT22;9905;52.126;5.596;2023-08-20T02:36:09;18.00;99.90
19522;DHT22;9905;52.126;5.596;2023-08-20T02:38:38;18.00;99.90
19522;DHT22;9905;52.126;5.596;2023-08-20T02:41:04;18.00;99.90
19522;DHT22;9905;52.126;5.596;2023-08-20T02:43:31;17.90;99.90
19522;DHT22;9905;52.126;5.596;2023-08-20T02:45:58;17.90;99.90
19522;DHT22;9905;52.126;5.596;2023-08-20T02:48:25;17.90;99.90
19522;DHT22;9905;52.126;5.596;2023-08-20T02:50:53;17.90;99.90
19522;DHT22;9905;52.126;5.596;2023-08-20T02:53:20;18.00;99.90
19522;DHT22;9905;52.126;5.596;2023-08-20T02:55:49;17.90;99.90
19522;DHT22;9905;52.126;5.596;2023-08-20T02:58:15;18.00;99.90
19522;DHT22;9905;52.126;5.596;2023-08-20T03:00:46;17.90;99.90
19522;DHT22;9905;52.126;5.596;2023-08-20T03:03:13;17.90;99.90
19522;DHT22;9905;52.126;5.596;2023-08-20T03:05:40;17.80;99.90
19522;DHT22;9905;52.126;5.596;2023-08-20T03:08:07;17.80;99.90
19522;DHT22;9905;52.126;5.596;2023-08-20T03:10:34;17.80;99.90
19522;DHT22;9905;52.126;5.596;2023-08-20T03:13:02;17.80;99.90
19522;DHT22;9905;52.126;5.596;2023-08-20T03:15:29;17.70;99.90
19522;DHT22;9905;52.126;5.596;2023-08-20T03:17:56;17.70;99.90
19522;DHT22;9905;52.126;5.596;2023-08-20T03:20:23;17.70;99.90
19522;DHT22;9905;52.126;5.596;2023-08-20T03:22:51;17.60;99.90
19522;DHT22;9905;52.126;5.596;2023-08-20T03:25:18;17.60;99.90
19522;DHT22;9905;52.126;5.596;2023-08-20T03:27:45;17.60;99.90
19522;DHT22;9905;52.126;5.596;2023-08-20T03:30:14;17.50;99.90
19522;DHT22;9905;52.126;5.596;2023-08-20T03:32:40;17.50;99.90
19522;DHT22;9905;52.126;5.596;2023-08-20T03:35:08;17.50;99.90
19522;DHT22;9905;52.126;5.596;2023-08-20T03:37:35;17.50;99.90
19522;DHT22;9905;52.126;5.596;2023-08-20T03:40:02;17.50;99.90
19522;DHT22;9905;52.126;5.596;2023-08-20T03:42:30;17.50;99.90
19522;DHT22;9905;52.126;5.596;2023-08-20T03:44:57;17.40;99.90
19522;DHT22;9905;52.126;5.596;2023-08-20T03:47:25;17.40;99.90
19522;DHT22;9905;52.126;5.596;2023-08-20T03:49:52;17.30;99.90
19522;DHT22;9905;52.126;5.596;2023-08-20T03:52:19;17.30;99.90
19522;DHT22;9905;52.126;5.596;2023-08-20T03:54:46;17.20;99.90
19522;DHT22;9905;52.126;5.596;2023-08-20T03:57:13;17.20;99.90
19522;DHT22;9905;52.126;5.596;2023-08-20T03:59:40;17.20;99.90
19522;DHT22;9905;52.126;5.596;2023-08-20T04:02:06;17.10;99.90
19522;DHT22;9905;52.126;5.596;2023-08-20T04:04:35;17.10;99.90
19522;DHT22;9905;52.126;5.596;2023-08-20T04:07:02;17.10;99.90
19522;DHT22;9905;52.126;5.596;2023-08-20T04:09:29;17.10;99.90
19522;DHT22;9905;52.126;5.596;2023-08-20T04:11:57;17.20;99.90
19522;DHT22;9905;52.126;5.596;2023-08-20T04:14:24;17.20;99.90
19522;DHT22;9905;52.126;5.596;2023-08-20T04:16:51;17.20;99.90
19522;DHT22;9905;52.126;5.596;2023-08-20T04:19:17;17.10;99.90
19522;DHT22;9905;52.126;5.596;2023-08-20T04:21:46;17.10;99.90
19522;DHT22;9905;52.126;5.596;2023-08-20T04:24:12;17.10;99.90
19522;DHT22;9905;52.126;5.596;2023-08-20T04:26:40;17.10;99.90
19522;DHT22;9905;52.126;5.596;2023-08-20T04:29:06;17.10;99.90
19522;DHT22;9905;52.126;5.596;2023-08-20T04:31:33;17.10;99.90
19522;DHT22;9905;52.126;5.596;2023-08-20T04:34:00;17.10;99.90
19522;DHT22;9905;52.126;5.596;2023-08-20T04:36:27;17.00;99.90
19522;DHT22;9905;52.126;5.596;2023-08-20T04:38:55;17.00;99.90
19522;DHT22;9905;52.126;5.596;2023-08-20T04:41:22;17.00;99.90
19522;DHT22;9905;52.126;5.596;2023-08-20T04:43:49;17.00;99.90
19522;DHT22;9905;52.126;5.596;2023-08-20T04:46:16;17.00;99.90
19522;DHT22;9905;52.126;5.596;2023-08-20T04:48:44;17.00;99.90
19522;DHT22;9905;52.126;5.596;2023-08-20T04:51:11;17.00;99.90
19522;DHT22;9905;52.126;5.596;2023-08-20T04:53:38;17.00;99.90
19522;DHT22;9905;52.126;5.596;2023-08-20T04:56:06;17.10;99.90
19522;DHT22;9905;52.126;5.596;2023-08-20T04:58:33;17.10;99.90
19522;DHT22;9905;52.126;5.596;2023-08-20T05:01:00;17.20;99.90
19522;DHT22;9905;52.126;5.596;2023-08-20T05:03:27;17.20;99.90
19522;DHT22;9905;52.126;5.596;2023-08-20T05:05:54;17.20;99.90
19522;DHT22;9905;52.126;5.596;2023-08-20T05:08:20;17.20;99.90
19522;DHT22;9905;52.126;5.596;2023-08-20T05:10:49;17.30;99.90
19522;DHT22;9905;52.126;5.596;2023-08-20T05:13:17;17.30;99.90
19522;DHT22;9905;52.126;5.596;2023-08-20T05:15:46;17.30;99.90
19522;DHT22;9905;52.126;5.596;2023-08-20T05:18:13;17.40;99.90
19522;DHT22;9905;52.126;5.596;2023-08-20T05:20:40;17.40;99.90
19522;DHT22;9905;52.126;5.596;2023-08-20T05:23:07;17.40;99.90
19522;DHT22;9905;52.126;5.596;2023-08-20T05:25:34;17.50;99.90
19522;DHT22;9905;52.126;5.596;2023-08-20T05:28:01;17.50;99.90
19522;DHT22;9905;52.126;5.596;2023-08-20T05:30:29;17.50;99.90
19522;DHT22;9905;52.126;5.596;2023-08-20T05:32:56;17.50;99.90
19522;DHT22;9905;52.126;5.596;2023-08-20T05:35:23;17.60;99.90
19522;DHT22;9905;52.126;5.596;2023-08-20T05:37:50;17.60;99.90
19522;DHT22;9905;52.126;5.596;2023-08-20T05:40:17;17.60;99.90
19522;DHT22;9905;52.126;5.596;2023-08-20T05:42:43;17.70;99.90
19522;DHT22;9905;52.126;5.596;2023-08-20T05:45:10;17.60;99.90
19522;DHT22;9905;52.126;5.596;2023-08-20T05:47:38;17.70;99.90
19522;DHT22;9905;52.126;5.596;2023-08-20T05:50:06;17.80;99.90
19522;DHT22;9905;52.126;5.596;2023-08-20T05:52:33;17.80;99.90
19522;DHT22;9905;52.126;5.596;2023-08-20T05:55:00;17.80;99.90
19522;DHT22;9905;52.126;5.596;2023-08-20T05:57:26;17.80;99.90
19522;DHT22;9905;52.126;5.596;2023-08-20T05:59:53;17.90;99.90
19522;DHT22;9905;52.126;5.596;2023-08-20T06:02:20;17.90;99.90
19522;DHT22;9905;52.126;5.596;2023-08-20T06:04:48;17.90;99.90
19522;DHT22;9905;52.126;5.596;2023-08-20T06:07:16;18.00;99.90
19522;DHT22;9905;52.126;5.596;2023-08-20T06:09:43;18.00;99.90
19522;DHT22;9905;52.126;5.596;2023-08-20T06:12:10;18.10;99.90
19522;DHT22;9905;52.126;5.596;2023-08-20T06:14:37;18.10;99.90
19522;DHT22;9905;52.126;5.596;2023-08-20T06:17:03;18.10;99.90
19522;DHT22;9905;52.126;5.596;2023-08-20T06:19:30;18.20;99.90
19522;DHT22;9905;52.126;5.596;2023-08-20T06:21:59;18.30;99.90
19522;DHT22;9905;52.126;5.596;2023-08-20T06:24:25;18.30;99.90
19522;DHT22;9905;52.126;5.596;2023-08-20T06:26:52;18.40;99.90
19522;DHT22;9905;52.126;5.596;2023-08-20T06:29:19;18.40;99.90
19522;DHT22;9905;52.126;5.596;2023-08-20T06:31:47;18.50;99.90
19522;DHT22;9905;52.126;5.596;2023-08-20T06:34:14;18.50;99.90
19522;DHT22;9905;52.126;5.596;2023-08-20T06:36:41;18.60;99.90
19522;DHT22;9905;52.126;5.596;2023-08-20T06:39:09;18.70;99.90
19522;DHT22;9905;52.126;5.596;2023-08-20T06:41:36;18.70;99.90
19522;DHT22;9905;52.126;5.596;2023-08-20T06:44:04;18.70;99.90
19522;DHT22;9905;52.126;5.596;2023-08-20T06:46:30;18.90;99.90
19522;DHT22;9905;52.126;5.596;2023-08-20T06:48:57;18.90;99.90
19522;DHT22;9905;52.126;5.596;2023-08-20T06:51:25;18.90;99.90
19522;DHT22;9905;52.126;5.596;2023-08-20T06:53:53;19.00;99.90
19522;DHT22;9905;52.126;5.596;2023-08-20T06:56:23;19.00;99.90
19522;DHT22;9905;52.126;5.596;2023-08-20T06:58:50;19.10;99.90
19522;DHT22;9905;52.126;5.596;2023-08-20T07:01:16;19.10;99.90
19522;DHT22;9905;52.126;5.596;2023-08-20T07:03:44;19.20;99.90
19522;DHT22;9905;52.126;5.596;2023-08-20T07:06:11;19.20;99.90
19522;DHT22;9905;52.126;5.596;2023-08-20T07:08:40;19.30;99.90
19522;DHT22;9905;52.126;5.596;2023-08-20T07:11:08;19.30;99.90
19522;DHT22;9905;52.126;5.596;2023-08-20T07:13:36;19.40;99.90
19522;DHT22;9905;52.126;5.596;2023-08-20T07:16:03;19.50;99.90
19522;DHT22;9905;52.126;5.596;2023-08-20T07:18:30;19.50;99.90
19522;DHT22;9905;52.126;5.596;2023-08-20T07:20:57;19.60;99.90
19522;DHT22;9905;52.126;5.596;2023-08-20T07:23:24;19.60;99.90
19522;DHT22;9905;52.126;5.596;2023-08-20T07:25:51;19.70;99.90
19522;DHT22;9905;52.126;5.596;2023-08-20T07:28:18;19.80;99.90
19522;DHT22;9905;52.126;5.596;2023-08-20T07:30:53;19.80;99.90
19522;DHT22;9905;52.126;5.596;2023-08-20T07:33:19;19.90;99.90
19522;DHT22;9905;52.126;5.596;2023-08-20T07:35:46;20.00;99.90
19522;DHT22;9905;52.126;5.596;2023-08-20T07:38:13;20.10;99.90
19522;DHT22;9905;52.126;5.596;2023-08-20T07:40:39;20.10;99.90
19522;DHT22;9905;52.126;5.596;2023-08-20T07:43:06;20.20;99.90
19522;DHT22;9905;52.126;5.596;2023-08-20T07:45:33;20.20;99.90
19522;DHT22;9905;52.126;5.596;2023-08-20T07:48:01;20.30;99.90
19522;DHT22;9905;52.126;5.596;2023-08-20T07:50:28;20.40;99.90
19522;DHT22;9905;52.126;5.596;2023-08-20T07:52:55;20.50;99.90
19522;DHT22;9905;52.126;5.596;2023-08-20T07:55:22;20.60;99.90
19522;DHT22;9905;52.126;5.596;2023-08-20T07:57:48;20.70;99.90
19522;DHT22;9905;52.126;5.596;2023-08-20T08:00:18;20.80;99.90
19522;DHT22;9905;52.126;5.596;2023-08-20T08:02:45;20.90;99.90
19522;DHT22;9905;52.126;5.596;2023-08-20T08:05:13;21.00;99.90
19522;DHT22;9905;52.126;5.596;2023-08-20T08:07:40;21.20;99.90
19522;DHT22;9905;52.126;5.596;2023-08-20T08:10:08;21.30;99.90
19522;DHT22;9905;52.126;5.596;2023-08-20T08:12:34;21.30;99.90
19522;DHT22;9905;52.126;5.596;2023-08-20T08:15:01;21.40;99.90
19522;DHT22;9905;52.126;5.596;2023-08-20T08:17:28;21.50;99.90
19522;DHT22;9905;52.126;5.596;2023-08-20T08:19:55;21.50;99.90
19522;DHT22;9905;52.126;5.596;2023-08-20T08:22:24;21.70;99.90
19522;DHT22;9905;52.126;5.596;2023-08-20T08:24:51;21.80;99.90
19522;DHT22;9905;52.126;5.596;2023-08-20T08:27:18;21.90;99.90
19522;DHT22;9905;52.126;5.596;2023-08-20T08:29:45;22.00;99.90
19522;DHT22;9905;52.126;5.596;2023-08-20T08:32:12;22.10;99.90
19522;DHT22;9905;52.126;5.596;2023-08-20T08:34:38;22.20;99.90
19522;DHT22;9905;52.126;5.596;2023-08-20T08:37:05;22.30;99.90
19522;DHT22;9905;52.126;5.596;2023-08-20T08:39:34;22.40;99.90
19522;DHT22;9905;52.126;5.596;2023-08-20T08:42:01;22.50;99.90
19522;DHT22;9905;52.126;5.596;2023-08-20T08:44:30;22.60;99.90
19522;DHT22;9905;52.126;5.596;2023-08-20T08:46:57;22.80;99.90
19522;DHT22;9905;52.126;5.596;2023-08-20T08:49:25;22.80;99.90
19522;DHT22;9905;52.126;5.596;2023-08-20T08:51:53;22.90;99.90
19522;DHT22;9905;52.126;5.596;2023-08-20T08:54:22;23.00;99.90
19522;DHT22;9905;52.126;5.596;2023-08-20T08:56:50;23.10;99.90
19522;DHT22;9905;52.126;5.596;2023-08-20T08:59:17;23.20;99.90
19522;DHT22;9905;52.126;5.596;2023-08-20T09:01:44;23.30;99.90
19522;DHT22;9905;52.126;5.596;2023-08-20T09:04:11;23.40;99.90
19522;DHT22;9905;52.126;5.596;2023-08-20T09:06:45;23.50;99.90
19522;DHT22;9905;52.126;5.596;2023-08-20T09:09:12;23.60;99.90
19522;DHT22;9905;52.126;5.596;2023-08-20T09:11:39;23.70;99.90
19522;DHT22;9905;52.126;5.596;2023-08-20T09:14:07;23.80;99.90
19522;DHT22;9905;52.126;5.596;2023-08-20T09:16:34;24.00;99.90
19522;DHT22;9905;52.126;5.596;2023-08-20T09:19:02;24.00;99.90
19522;DHT22;9905;52.126;5.596;2023-08-20T09:21:29;24.10;99.90
19522;DHT22;9905;52.126;5.596;2023-08-20T09:23:57;24.30;99.90
19522;DHT22;9905;52.126;5.596;2023-08-20T09:26:24;24.40;99.90
19522;DHT22;9905;52.126;5.596;2023-08-20T09:28:53;24.50;99.90
19522;DHT22;9905;52.126;5.596;2023-08-20T09:31:37;24.60;99.90
19522;DHT22;9905;52.126;5.596;2023-08-20T09:34:04;24.70;99.90
19522;DHT22;9905;52.126;5.596;2023-08-20T09:36:33;24.60;99.90
19522;DHT22;9905;52.126;5.596;2023-08-20T09:39:01;24.70;99.90
19522;DHT22;9905;52.126;5.596;2023-08-20T09:41:28;24.70;99.90
19522;DHT22;9905;52.126;5.596;2023-08-20T09:43:57;24.90;99.90
19522;DHT22;9905;52.126;5.596;2023-08-20T09:46:27;25.00;99.90
19522;DHT22;9905;52.126;5.596;2023-08-20T09:48:56;25.00;99.90
19522;DHT22;9905;52.126;5.596;2023-08-20T09:51:26;25.10;99.90
19522;DHT22;9905;52.126;5.596;2023-08-20T09:54:00;25.20;99.90
19522;DHT22;9905;52.126;5.596;2023-08-20T09:56:30;25.40;99.90
19522;DHT22;9905;52.126;5.596;2023-08-20T09:58:57;25.40;99.90
19522;DHT22;9905;52.126;5.596;2023-08-20T10:01:27;25.50;99.90
19522;DHT22;9905;52.126;5.596;2023-08-20T10:03:54;25.60;99.90
19522;DHT22;9905;52.126;5.596;2023-08-20T10:06:21;25.50;99.90
19522;DHT22;9905;52.126;5.596;2023-08-20T10:08:50;25.70;99.90
19522;DHT22;9905;52.126;5.596;2023-08-20T10:11:17;25.80;99.90
19522;DHT22;9905;52.126;5.596;2023-08-20T10:13:44;25.90;99.90
19522;DHT22;9905;52.126;5.596;2023-08-20T10:16:12;26.00;99.90
19522;DHT22;9905;52.126;5.596;2023-08-20T10:18:40;26.10;99.90
19522;DHT22;9905;52.126;5.596;2023-08-20T10:21:07;26.30;99.90
19522;DHT22;9905;52.126;5.596;2023-08-20T10:23:36;26.40;99.90
19522;DHT22;9905;52.126;5.596;2023-08-20T10:26:07;26.50;99.90
19522;DHT22;9905;52.126;5.596;2023-08-20T10:28:35;26.60;99.90
19522;DHT22;9905;52.126;5.596;2023-08-20T10:31:08;26.60;99.90
19522;DHT22;9905;52.126;5.596;2023-08-20T10:33:37;26.80;99.90
19522;DHT22;9905;52.126;5.596;2023-08-20T10:36:09;26.80;99.90
19522;DHT22;9905;52.126;5.596;2023-08-20T10:38:36;26.80;99.90
19522;DHT22;9905;52.126;5.596;2023-08-20T10:41:06;26.90;99.90
19522;DHT22;9905;52.126;5.596;2023-08-20T10:43:34;27.00;99.90
19522;DHT22;9905;52.126;5.596;2023-08-20T10:46:06;27.10;99.90
19522;DHT22;9905;52.126;5.596;2023-08-20T10:48:33;27.20;99.90
19522;DHT22;9905;52.126;5.596;2023-08-20T10:51:11;27.20;99.90
19522;DHT22;9905;52.126;5.596;2023-08-20T10:53:40;27.10;99.90
19522;DHT22;9905;52.126;5.596;2023-08-20T10:56:11;27.10;99.90
19522;DHT22;9905;52.126;5.596;2023-08-20T10:58:41;27.10;99.90
19522;DHT22;9905;52.126;5.596;2023-08-20T11:01:15;27.10;99.90
19522;DHT22;9905;52.126;5.596;2023-08-20T11:03:43;27.30;99.90
19522;DHT22;9905;52.126;5.596;2023-08-20T11:06:14;27.50;99.90
19522;DHT22;9905;52.126;5.596;2023-08-20T11:08:44;27.40;99.90
19522;DHT22;9905;52.126;5.596;2023-08-20T11:11:12;27.40;99.90
19522;DHT22;9905;52.126;5.596;2023-08-20T11:13:39;27.50;99.90
19522;DHT22;9905;52.126;5.596;2023-08-20T11:16:06;27.50;99.90
19522;DHT22;9905;52.126;5.596;2023-08-20T11:18:34;27.60;99.90
19522;DHT22;9905;52.126;5.596;2023-08-20T11:21:01;27.70;99.90
19522;DHT22;9905;52.126;5.596;2023-08-20T11:23:29;27.60;99.90
19522;DHT22;9905;52.126;5.596;2023-08-20T11:25:57;27.60;99.90
19522;DHT22;9905;52.126;5.596;2023-08-20T11:28:28;27.40;99.90
19522;DHT22;9905;52.126;5.596;2023-08-20T11:30:55;27.50;99.90
19522;DHT22;9905;52.126;5.596;2023-08-20T11:33:23;27.70;99.90
19522;DHT22;9905;52.126;5.596;2023-08-20T11:35:52;28.00;99.90
19522;DHT22;9905;52.126;5.596;2023-08-20T11:38:21;28.00;99.90
19522;DHT22;9905;52.126;5.596;2023-08-20T11:40:49;27.90;99.90
19522;DHT22;9905;52.126;5.596;2023-08-20T11:43:17;27.80;99.90
19522;DHT22;9905;52.126;5.596;2023-08-20T11:45:45;27.90;99.90
19522;DHT22;9905;52.126;5.596;2023-08-20T11:48:12;28.00;99.90
19522;DHT22;9905;52.126;5.596;2023-08-20T11:50:41;28.10;99.90
19522;DHT22;9905;52.126;5.596;2023-08-20T11:53:08;28.30;99.90
19522;DHT22;9905;52.126;5.596;2023-08-20T11:55:37;28.40;99.90
19522;DHT22;9905;52.126;5.596;2023-08-20T11:58:05;28.60;99.90
19522;DHT22;9905;52.126;5.596;2023-08-20T12:00:32;28.60;99.90
19522;DHT22;9905;52.126;5.596;2023-08-20T12:02:59;28.70;99.90
19522;DHT22;9905;52.126;5.596;2023-08-20T12:05:27;29.00;99.90
19522;DHT22;9905;52.126;5.596;2023-08-20T12:07:57;29.10;99.90
19522;DHT22;9905;52.126;5.596;2023-08-20T12:10:25;29.10;99.90
19522;DHT22;9905;52.126;5.596;2023-08-20T12:12:53;29.20;99.90
19522;DHT22;9905;52.126;5.596;2023-08-20T12:15:22;29.20;99.90
19522;DHT22;9905;52.126;5.596;2023-08-20T12:17:59;29.40;99.90
19522;DHT22;9905;52.126;5.596;2023-08-20T12:20:29;29.50;99.90
19522;DHT22;9905;52.126;5.596;2023-08-20T12:22:59;29.70;99.90
19522;DHT22;9905;52.126;5.596;2023-08-20T12:25:26;29.60;99.90
19522;DHT22;9905;52.126;5.596;2023-08-20T12:27:53;29.50;99.90
19522;DHT22;9905;52.126;5.596;2023-08-20T12:30:21;29.30;99.90
19522;DHT22;9905;52.126;5.596;2023-08-20T12:32:48;29.30;99.90
19522;DHT22;9905;52.126;5.596;2023-08-20T12:35:15;29.60;99.90
19522;DHT22;9905;52.126;5.596;2023-08-20T12:37:42;29.60;99.90
19522;DHT22;9905;52.126;5.596;2023-08-20T12:40:10;29.60;99.90
19522;DHT22;9905;52.126;5.596;2023-08-20T12:42:38;29.70;99.90
19522;DHT22;9905;52.126;5.596;2023-08-20T12:45:05;29.90;99.90
19522;DHT22;9905;52.126;5.596;2023-08-20T12:47:34;30.20;99.90
19522;DHT22;9905;52.126;5.596;2023-08-20T12:50:01;30.00;99.90
19522;DHT22;9905;52.126;5.596;2023-08-20T12:52:28;29.80;99.90
19522;DHT22;9905;52.126;5.596;2023-08-20T12:54:55;29.60;99.90
19522;DHT22;9905;52.126;5.596;2023-08-20T12:57:22;29.50;99.90
19522;DHT22;9905;52.126;5.596;2023-08-20T12:59:49;29.60;99.90
19522;DHT22;9905;52.126;5.596;2023-08-20T13:02:17;29.60;99.90
19522;DHT22;9905;52.126;5.596;2023-08-20T13:04:46;29.60;99.90
19522;DHT22;9905;52.126;5.596;2023-08-20T13:07:14;29.60;99.90
19522;DHT22;9905;52.126;5.596;2023-08-20T13:09:42;29.60;99.90
19522;DHT22;9905;52.126;5.596;2023-08-20T13:12:10;29.60;99.90
19522;DHT22;9905;52.126;5.596;2023-08-20T13:14:38;29.40;99.90
19522;DHT22;9905;52.126;5.596;2023-08-20T13:17:06;29.20;99.90
19522;DHT22;9905;52.126;5.596;2023-08-20T13:19:34;29.10;99.90
19522;DHT22;9905;52.126;5.596;2023-08-20T13:22:02;29.20;99.90
19522;DHT22;9905;52.126;5.596;2023-08-20T13:24:29;29.20;99.90
19522;DHT22;9905;52.126;5.596;2023-08-20T13:26:55;29.30;99.90
19522;DHT22;9905;52.126;5.596;2023-08-20T13:29:22;29.40;99.90
19522;DHT22;9905;52.126;5.596;2023-08-20T13:31:49;29.50;99.90
19522;DHT22;9905;52.126;5.596;2023-08-20T13:34:20;29.60;99.90
19522;DHT22;9905;52.126;5.596;2023-08-20T13:36:47;29.50;99.90
19522;DHT22;9905;52.126;5.596;2023-08-20T13:39:16;29.60;99.90
19522;DHT22;9905;52.126;5.596;2023-08-20T13:41:43;29.50;99.90
19522;DHT22;9905;52.126;5.596;2023-08-20T13:44:10;29.60;99.90
19522;DHT22;9905;52.126;5.596;2023-08-20T13:46:37;29.80;99.90
19522;DHT22;9905;52.126;5.596;2023-08-20T13:49:04;29.90;99.90
19522;DHT22;9905;52.126;5.596;2023-08-20T13:51:31;29.70;99.90
19522;DHT22;9905;52.126;5.596;2023-08-20T13:53:58;29.70;99.90
19522;DHT22;9905;52.126;5.596;2023-08-20T13:56:27;29.60;99.90
19522;DHT22;9905;52.126;5.596;2023-08-20T13:58:54;29.70;99.90
19522;DHT22;9905;52.126;5.596;2023-08-20T14:01:21;29.50;99.90
19522;DHT22;9905;52.126;5.596;2023-08-20T14:03:47;29.30;99.90
19522;DHT22;9905;52.126;5.596;2023-08-20T14:06:15;29.30;99.90
19522;DHT22;9905;52.126;5.596;2023-08-20T14:08:43;29.20;99.90
19522;DHT22;9905;52.126;5.596;2023-08-20T14:11:10;29.00;99.90
19522;DHT22;9905;52.126;5.596;2023-08-20T14:13:38;28.80;99.90
19522;DHT22;9905;52.126;5.596;2023-08-20T14:16:05;28.90;99.90
19522;DHT22;9905;52.126;5.596;2023-08-20T14:18:32;29.00;99.90
19522;DHT22;9905;52.126;5.596;2023-08-20T14:20:59;28.90;99.90
19522;DHT22;9905;52.126;5.596;2023-08-20T14:23:26;29.00;99.90
19522;DHT22;9905;52.126;5.596;2023-08-20T14:25:53;28.90;99.90
19522;DHT22;9905;52.126;5.596;2023-08-20T14:28:21;28.70;99.90
19522;DHT22;9905;52.126;5.596;2023-08-20T14:30:50;28.40;99.90
19522;DHT22;9905;52.126;5.596;2023-08-20T14:33:19;28.30;99.90
19522;DHT22;9905;52.126;5.596;2023-08-20T14:35:46;28.30;99.90
19522;DHT22;9905;52.126;5.596;2023-08-20T14:38:13;28.50;99.90
19522;DHT22;9905;52.126;5.596;2023-08-20T14:40:40;28.50;99.90
19522;DHT22;9905;52.126;5.596;2023-08-20T14:43:07;28.50;99.90
19522;DHT22;9905;52.126;5.596;2023-08-20T14:45:34;28.50;99.90
19522;DHT22;9905;52.126;5.596;2023-08-20T14:48:03;28.40;99.90
19522;DHT22;9905;52.126;5.596;2023-08-20T14:50:30;28.40;99.90
19522;DHT22;9905;52.126;5.596;2023-08-20T14:52:57;28.60;99.90
19522;DHT22;9905;52.126;5.596;2023-08-20T14:55:23;28.80;99.90
19522;DHT22;9905;52.126;5.596;2023-08-20T14:57:50;28.90;99.90
19522;DHT22;9905;52.126;5.596;2023-08-20T15:00:17;29.00;99.90
19522;DHT22;9905;52.126;5.596;2023-08-20T15:02:44;28.70;99.90
19522;DHT22;9905;52.126;5.596;2023-08-20T15:05:13;28.80;99.90
19522;DHT22;9905;52.126;5.596;2023-08-20T15:07:43;28.90;99.90
19522;DHT22;9905;52.126;5.596;2023-08-20T15:10:10;29.00;99.90
19522;DHT22;9905;52.126;5.596;2023-08-20T15:12:37;29.00;99.90
19522;DHT22;9905;52.126;5.596;2023-08-20T15:15:05;28.90;99.90
19522;DHT22;9905;52.126;5.596;2023-08-20T15:17:34;28.90;99.90
19522;DHT22;9905;52.126;5.596;2023-08-20T15:20:01;29.00;99.90
19522;DHT22;9905;52.126;5.596;2023-08-20T15:22:30;29.10;99.90
19522;DHT22;9905;52.126;5.596;2023-08-20T15:24:57;29.00;99.90
19522;DHT22;9905;52.126;5.596;2023-08-20T15:27:24;29.20;99.90
19522;DHT22;9905;52.126;5.596;2023-08-20T15:29:51;29.50;99.90
19522;DHT22;9905;52.126;5.596;2023-08-20T15:32:18;29.60;99.90
19522;DHT22;9905;52.126;5.596;2023-08-20T15:34:46;29.80;99.90
19522;DHT22;9905;52.126;5.596;2023-08-20T15:37:14;29.90;99.90
19522;DHT22;9905;52.126;5.596;2023-08-20T15:39:42;30.10;99.90
19522;DHT22;9905;52.126;5.596;2023-08-20T15:42:09;30.30;99.90
19522;DHT22;9905;52.126;5.596;2023-08-20T15:44:38;30.40;99.90
19522;DHT22;9905;52.126;5.596;2023-08-20T15:47:05;30.30;99.90